createdAt,value
2023-01-12T00:00:01.645Z,15.87
2023-01-12T00:00:23.644Z,15.58
2023-01-12T00:00:45.637Z,16.19
2023-01-12T00:01:10.389Z,16.24
2023-01-12T00:01:32.452Z,15.93
2023-01-12T00:01:54.306Z,16.01
2023-01-12T00:02:18.515Z,16.03
2023-01-12T00:02:40.243Z,16.10
2023-01-12T00:03:01.924Z,16.13
2023-01-12T00:03:23.968Z,16.08
2023-01-12T00:03:45.583Z,16.03
2023-01-12T00:04:08.673Z,16.12
2023-01-12T00:04:31.062Z,16.13
2023-01-12T00:04:52.800Z,16.20
2023-01-12T00:05:15.606Z,16.23
2023-01-12T00:05:37.194Z,16.30
2023-01-12T00:06:00.893Z,16.30
2023-01-12T00:06:23.721Z,16.29
2023-01-12T00:06:46.725Z,16.25
2023-01-12T00:07:09.385Z,16.20
2023-01-12T00:07:33.488Z,16.24
2023-01-12T00:07:56.182Z,16.27
2023-01-12T00:08:18.393Z,16.06
2023-01-12T00:08:40.703Z,16.18
2023-01-12T00:09:04.743Z,16.26
2023-01-12T00:09:27.610Z,16.33
2023-01-12T00:09:49.329Z,16.40
2023-01-12T00:10:11.271Z,16.44
2023-01-12T00:10:32.850Z,16.29
2023-01-12T00:10:55.658Z,16.27
2023-01-12T00:11:19.955Z,16.33
2023-01-12T00:11:41.844Z,16.36
2023-01-12T00:12:04.382Z,16.43
2023-01-12T00:12:26.969Z,16.42
2023-01-12T00:12:48.583Z,16.41
2023-01-12T00:13:10.221Z,16.38
2023-01-12T00:13:33.305Z,16.40
2023-01-12T00:13:54.969Z,16.42
2023-01-12T00:14:17.914Z,16.42
2023-01-12T00:14:40.174Z,16.11
2023-01-12T00:15:01.877Z,16.13
2023-01-12T00:15:56.291Z,15.77
2023-01-12T00:16:38.583Z,15.95
2023-01-12T00:17:00.263Z,15.94
2023-01-12T00:17:22.557Z,16.03
2023-01-12T00:17:44.141Z,16.11
2023-01-12T00:18:06.906Z,16.16
2023-01-12T00:18:28.490Z,16.22
2023-01-12T00:18:50.612Z,16.29
2023-01-12T00:19:15.553Z,16.32
2023-01-12T00:19:39.269Z,16.27
2023-01-12T00:20:00.970Z,16.31
2023-01-12T00:20:22.578Z,16.26
2023-01-12T00:20:47.677Z,16.28
2023-01-12T00:21:09.456Z,16.35
2023-01-12T00:21:34.244Z,16.34
2023-01-12T00:21:59.504Z,16.11
2023-01-12T00:22:22.283Z,15.99
2023-01-12T00:22:44.231Z,15.90
2023-01-12T00:23:06.751Z,15.86
2023-01-12T00:23:29.334Z,15.96
2023-01-12T00:23:50.978Z,16.05
2023-01-12T00:24:14.650Z,16.03
2023-01-12T00:24:38.862Z,16.06
2023-01-12T00:25:00.405Z,16.14
2023-01-12T00:25:21.985Z,15.76
2023-01-12T00:25:50.039Z,15.90
2023-01-12T00:26:11.759Z,16.09
2023-01-12T00:26:34.300Z,16.16
2023-01-12T00:26:57.131Z,15.90
2023-01-12T00:27:20.257Z,15.86
2023-01-12T00:27:43.270Z,15.83
2023-01-12T00:28:05.122Z,15.88
2023-01-12T00:28:27.127Z,16.02
2023-01-12T00:28:48.735Z,15.93
2023-01-12T00:29:10.516Z,15.89
2023-01-12T00:29:33.674Z,15.75
2023-01-12T00:29:55.453Z,15.76
2023-01-12T00:30:17.341Z,15.71
2023-01-12T00:30:38.949Z,15.89
2023-01-12T00:31:01.215Z,15.96
2023-01-12T00:31:25.257Z,16.03
2023-01-12T00:31:47.045Z,15.95
2023-01-12T00:32:13.643Z,15.81
2023-01-12T00:32:35.224Z,15.92
2023-01-12T00:32:56.822Z,15.93
2023-01-12T00:33:20.269Z,15.86
2023-01-12T00:33:43.040Z,15.91
2023-01-12T00:34:05.061Z,15.72
2023-01-12T00:34:29.406Z,15.77
2023-01-12T00:34:51.335Z,15.75
2023-01-12T00:35:15.064Z,15.60
2023-01-12T00:35:36.853Z,15.71
2023-01-12T00:36:02.361Z,15.81
2023-01-12T00:36:23.976Z,15.52
2023-01-12T00:36:48.000Z,15.95
2023-01-12T00:37:09.989Z,15.89
2023-01-12T00:37:31.624Z,15.97
2023-01-12T00:37:53.291Z,16.04
2023-01-12T00:38:14.924Z,16.11
2023-01-12T00:38:39.092Z,16.08
2023-01-12T00:39:01.019Z,16.06
2023-01-12T00:39:22.827Z,16.12
2023-01-12T00:40:00.802Z,16.06
2023-01-12T00:40:23.806Z,15.99
2023-01-12T00:40:45.482Z,15.99
2023-01-12T00:41:08.143Z,15.83
2023-01-12T00:41:50.479Z,15.72
2023-01-12T00:42:31.187Z,15.76
2023-01-12T00:43:11.285Z,15.77
2023-01-12T00:43:51.442Z,15.58
2023-01-12T00:44:28.661Z,15.51
2023-01-12T00:45:08.618Z,15.72
2023-01-12T00:45:31.376Z,15.77
2023-01-12T00:45:53.104Z,15.66
2023-01-12T00:46:14.811Z,15.67
2023-01-12T00:46:37.822Z,15.73
2023-01-12T00:46:59.487Z,15.70
2023-01-12T00:47:22.639Z,15.79
2023-01-12T00:47:44.268Z,15.88
2023-01-12T00:48:06.285Z,15.93
2023-01-12T00:48:27.885Z,15.92
2023-01-12T00:48:49.471Z,15.94
2023-01-12T00:49:12.161Z,15.90
2023-01-12T00:49:34.013Z,15.92
2023-01-12T00:49:55.658Z,15.89
2023-01-12T00:50:19.364Z,15.95
2023-01-12T00:50:42.352Z,15.99
2023-01-12T00:51:04.298Z,15.92
2023-01-12T00:51:25.940Z,15.97
2023-01-12T00:51:47.536Z,15.95
2023-01-12T00:52:18.168Z,15.93
2023-01-12T00:52:46.895Z,15.83
2023-01-12T00:53:08.595Z,16.11
2023-01-12T00:53:30.769Z,16.18
2023-01-12T00:53:53.302Z,16.19
2023-01-12T00:54:14.993Z,16.21
2023-01-12T00:54:37.058Z,15.88
2023-01-12T00:54:59.382Z,16.01
2023-01-12T00:55:22.027Z,15.94
2023-01-12T00:55:43.616Z,16.06
2023-01-12T00:56:06.151Z,16.15
2023-01-12T00:56:27.869Z,16.22
2023-01-12T00:56:49.592Z,16.27
2023-01-12T00:57:14.363Z,16.34
2023-01-12T00:57:36.283Z,16.29
2023-01-12T00:57:57.924Z,16.33
2023-01-12T00:58:19.514Z,16.25
2023-01-12T00:58:41.122Z,16.27
2023-01-12T00:59:04.669Z,16.33
2023-01-12T00:59:26.244Z,16.22
2023-01-12T00:59:47.885Z,16.18
2023-01-12T01:00:10.797Z,16.17
2023-01-12T01:00:33.564Z,16.15
2023-01-12T01:00:55.344Z,16.11
2023-01-12T01:01:17.069Z,16.09
2023-01-12T01:01:40.188Z,16.13
2023-01-12T01:02:02.203Z,16.11
2023-01-12T01:02:24.867Z,15.95
2023-01-12T01:02:46.889Z,16.08
2023-01-12T01:03:08.635Z,16.15
2023-01-12T01:03:30.371Z,16.03
2023-01-12T01:03:52.020Z,16.04
2023-01-12T01:04:14.575Z,16.12
2023-01-12T01:04:36.429Z,16.08
2023-01-12T01:04:58.061Z,16.02
2023-01-12T01:05:20.732Z,16.13
2023-01-12T01:05:42.359Z,16.21
2023-01-12T01:06:05.110Z,16.10
2023-01-12T01:06:26.810Z,16.10
2023-01-12T01:06:48.473Z,16.12
2023-01-12T01:07:11.149Z,16.05
2023-01-12T01:07:32.754Z,16.09
2023-01-12T01:07:54.403Z,16.17
2023-01-12T01:08:16.065Z,16.22
2023-01-12T01:08:37.672Z,16.20
2023-01-12T01:09:00.297Z,16.04
2023-01-12T01:09:21.942Z,16.09
2023-01-12T01:09:44.230Z,16.02
2023-01-12T01:10:06.688Z,16.08
2023-01-12T01:10:29.360Z,16.17
2023-01-12T01:11:01.158Z,16.21
2023-01-12T01:11:22.867Z,16.24
2023-01-12T01:11:44.714Z,16.29
2023-01-12T01:12:07.601Z,16.19
2023-01-12T01:12:29.283Z,16.14
2023-01-12T01:12:51.853Z,16.03
2023-01-12T01:13:13.547Z,15.98
2023-01-12T01:13:36.522Z,16.02
2023-01-12T01:13:59.358Z,16.07
2023-01-12T01:14:21.155Z,15.97
2023-01-12T01:14:42.855Z,16.01
2023-01-12T01:15:06.090Z,16.04
2023-01-12T01:15:27.783Z,16.09
2023-01-12T01:15:49.490Z,16.14
2023-01-12T01:16:13.480Z,16.20
2023-01-12T01:16:35.996Z,15.95
2023-01-12T01:16:59.949Z,15.97
2023-01-12T01:17:21.612Z,15.92
2023-01-12T01:17:43.336Z,15.99
2023-01-12T01:18:05.021Z,16.05
2023-01-12T01:18:27.053Z,16.04
2023-01-12T01:18:49.098Z,16.10
2023-01-12T01:19:11.970Z,16.11
2023-01-12T01:19:33.737Z,16.21
2023-01-12T01:19:55.384Z,16.31
2023-01-12T01:20:17.290Z,16.39
2023-01-12T01:20:39.031Z,16.20
2023-01-12T01:21:02.459Z,16.17
2023-01-12T01:21:24.640Z,16.16
2023-01-12T01:21:46.371Z,16.19
2023-01-12T01:22:07.945Z,16.14
2023-01-12T01:22:30.593Z,16.12
2023-01-12T01:22:52.190Z,15.94
2023-01-12T01:23:13.885Z,15.97
2023-01-12T01:23:37.066Z,16.05
2023-01-12T01:23:59.268Z,16.15
2023-01-12T01:24:21.850Z,16.26
2023-01-12T01:24:43.605Z,16.35
2023-01-12T01:25:06.248Z,16.41
2023-01-12T01:25:27.896Z,16.41
2023-01-12T01:25:49.536Z,16.36
2023-01-12T01:26:14.833Z,16.24
2023-01-12T01:26:36.506Z,16.26
2023-01-12T01:26:58.119Z,16.27
2023-01-12T01:27:20.784Z,16.06
2023-01-12T01:28:10.539Z,16.05
2023-01-12T01:28:32.889Z,16.20
2023-01-12T01:28:56.718Z,16.03
2023-01-12T01:29:18.754Z,15.85
2023-01-12T01:29:40.812Z,15.94
2023-01-12T01:30:02.409Z,15.99
2023-01-12T01:30:25.042Z,15.99
2023-01-12T01:30:47.349Z,15.96
2023-01-12T01:31:15.884Z,16.03
2023-01-12T01:31:38.766Z,16.11
2023-01-12T01:32:01.771Z,16.21
2023-01-12T01:32:23.383Z,16.24
2023-01-12T01:32:44.975Z,16.19
2023-01-12T01:33:06.608Z,16.10
2023-01-12T01:33:29.245Z,15.94
2023-01-12T01:33:51.331Z,16.00
2023-01-12T01:34:13.092Z,16.05
2023-01-12T01:34:36.290Z,16.08
2023-01-12T01:34:57.922Z,16.10
2023-01-12T01:35:19.538Z,16.08
2023-01-12T01:35:41.225Z,15.88
2023-01-12T01:36:04.426Z,15.96
2023-01-12T01:36:26.230Z,15.98
2023-01-12T01:36:47.827Z,15.87
2023-01-12T01:37:11.696Z,15.87
2023-01-12T01:37:33.379Z,15.74
2023-01-12T01:37:55.057Z,15.72
2023-01-12T01:38:28.596Z,15.74
2023-01-12T01:38:52.191Z,15.70
2023-01-12T01:39:18.177Z,15.73
2023-01-12T01:39:43.542Z,15.72
2023-01-12T01:40:10.419Z,15.55
2023-01-12T01:40:34.826Z,15.53
2023-01-12T01:40:58.593Z,15.69
2023-01-12T01:41:26.151Z,15.73
2023-01-12T01:41:54.244Z,15.72
2023-01-12T01:42:28.695Z,15.83
2023-01-12T01:42:57.885Z,15.89
2023-01-12T01:43:27.285Z,15.99
2023-01-12T01:44:05.032Z,16.03
2023-01-12T01:44:52.310Z,16.12
2023-01-12T01:45:18.704Z,16.17
2023-01-12T01:45:43.053Z,16.16
2023-01-12T01:46:12.897Z,16.13
2023-01-12T01:46:52.592Z,16.20
2023-01-12T01:47:27.985Z,16.25
2023-01-12T01:47:57.408Z,16.30
2023-01-12T01:48:20.775Z,16.33
2023-01-12T01:48:45.056Z,16.25
2023-01-12T01:49:15.367Z,16.24
2023-01-12T01:49:41.572Z,16.29
2023-01-12T01:50:10.870Z,16.35
2023-01-12T01:50:36.415Z,16.39
2023-01-12T01:51:02.139Z,16.35
2023-01-12T01:51:23.887Z,16.23
2023-01-12T01:51:46.274Z,16.31
2023-01-12T01:52:12.911Z,16.35
2023-01-12T01:52:39.531Z,16.31
2023-01-12T01:53:05.410Z,16.24
2023-01-12T01:53:31.921Z,16.13
2023-01-12T01:53:54.498Z,16.06
2023-01-12T01:54:16.324Z,16.05
2023-01-12T01:54:42.101Z,16.10
2023-01-12T01:55:08.362Z,16.12
2023-01-12T01:55:35.524Z,16.22
2023-01-12T01:56:00.965Z,16.12
2023-01-12T01:56:26.756Z,16.09
2023-01-12T01:56:48.764Z,16.09
2023-01-12T01:57:13.707Z,16.10
2023-01-12T01:57:43.379Z,16.25
2023-01-12T01:58:10.207Z,16.23
2023-01-12T01:58:37.593Z,16.28
2023-01-12T01:59:06.491Z,16.27
2023-01-12T01:59:32.616Z,15.99
2023-01-12T01:59:56.383Z,16.23
2023-01-12T02:00:19.880Z,16.24
2023-01-12T02:00:43.599Z,16.26
2023-01-12T02:01:06.371Z,16.28
2023-01-12T02:01:28.493Z,16.27
2023-01-12T02:01:51.729Z,16.23
2023-01-12T02:02:16.556Z,16.15
2023-01-12T02:02:39.039Z,15.99
2023-01-12T02:03:04.881Z,16.09
2023-01-12T02:03:27.338Z,15.87
2023-01-12T02:03:50.975Z,15.81
2023-01-12T02:04:13.885Z,15.88
2023-01-12T02:04:36.064Z,15.69
2023-01-12T02:04:57.847Z,15.88
2023-01-12T02:05:24.008Z,15.98
2023-01-12T02:05:48.873Z,16.04
2023-01-12T02:06:10.709Z,16.13
2023-01-12T02:06:32.888Z,16.20
2023-01-12T02:06:56.287Z,16.28
2023-01-12T02:07:18.894Z,16.34
2023-01-12T02:07:40.983Z,16.38
2023-01-12T02:08:08.991Z,16.41
2023-01-12T02:08:41.773Z,16.36
2023-01-12T02:09:08.704Z,16.37
2023-01-12T02:09:30.850Z,16.42
2023-01-12T02:09:52.557Z,16.39
2023-01-12T02:10:15.220Z,16.37
2023-01-12T02:10:37.599Z,16.43
2023-01-12T02:11:01.397Z,16.39
2023-01-12T02:11:42.017Z,16.43
2023-01-12T02:12:24.003Z,16.61
2023-01-12T02:13:04.433Z,16.71
2023-01-12T02:13:47.844Z,16.74
2023-01-12T02:14:28.592Z,16.48
2023-01-12T02:15:09.464Z,16.30
2023-01-12T02:15:58.425Z,16.51
2023-01-12T02:16:25.429Z,16.47
2023-01-12T02:16:58.766Z,16.54
2023-01-12T02:17:38.416Z,16.25
2023-01-12T02:18:15.864Z,16.41
2023-01-12T02:18:45.685Z,16.56
2023-01-12T02:19:29.053Z,16.66
2023-01-12T02:20:20.539Z,16.74
2023-01-12T02:21:00.864Z,16.88
2023-01-12T02:21:51.215Z,16.96
2023-01-12T02:22:48.972Z,17.04
2023-01-12T02:23:50.428Z,16.78
2023-01-12T02:24:48.057Z,16.43
2023-01-12T02:25:36.370Z,16.46
2023-01-12T02:26:47.605Z,16.68
2023-01-12T02:27:29.892Z,16.47
2023-01-12T02:28:11.562Z,16.32
2023-01-12T02:29:02.380Z,16.53
2023-01-12T02:29:44.312Z,16.66
2023-01-12T02:30:33.812Z,16.78
2023-01-12T02:31:26.926Z,16.87
2023-01-12T02:31:59.583Z,16.95
2023-01-12T02:32:29.292Z,16.96
2023-01-12T02:33:01.749Z,16.97
2023-01-12T02:33:32.430Z,17.01
2023-01-12T02:34:05.230Z,16.84
2023-01-12T02:34:36.377Z,16.79
2023-01-12T02:35:11.311Z,16.78
2023-01-12T02:35:43.210Z,16.78
2023-01-12T02:36:13.038Z,16.78
2023-01-12T02:36:45.011Z,16.74
2023-01-12T02:37:16.934Z,16.77
2023-01-12T02:37:44.238Z,16.67
2023-01-12T02:38:17.882Z,16.63
2023-01-12T02:38:47.220Z,16.61
2023-01-12T02:39:15.782Z,16.71
2023-01-12T02:39:43.055Z,16.50
2023-01-12T02:40:10.872Z,16.66
2023-01-12T02:40:38.591Z,16.53
2023-01-12T02:41:09.667Z,16.71
2023-01-12T02:41:56.296Z,16.71
2023-01-12T02:42:41.609Z,16.61
2023-01-12T02:43:10.211Z,16.77
2023-01-12T02:43:35.044Z,16.86
2023-01-12T02:43:57.496Z,16.76
2023-01-12T02:44:27.735Z,16.47
2023-01-12T02:44:55.394Z,16.48
2023-01-12T02:45:27.261Z,16.60
2023-01-12T02:45:54.465Z,16.70
2023-01-12T02:46:23.384Z,16.78
2023-01-12T02:46:52.412Z,16.81
2023-01-12T02:47:23.371Z,16.88
2023-01-12T02:47:50.654Z,16.91
2023-01-12T02:48:18.322Z,16.89
2023-01-12T02:48:47.035Z,16.90
2023-01-12T02:49:13.332Z,16.80
2023-01-12T02:49:44.488Z,16.82
2023-01-12T02:50:12.587Z,16.41
2023-01-12T02:50:41.559Z,16.49
2023-01-12T02:51:08.414Z,16.57
2023-01-12T02:51:33.561Z,16.56
2023-01-12T02:51:59.498Z,16.63
2023-01-12T02:52:24.233Z,16.69
2023-01-12T02:52:51.834Z,16.76
2023-01-12T02:53:19.488Z,16.80
2023-01-12T02:53:46.130Z,16.74
2023-01-12T02:54:11.788Z,16.89
2023-01-12T02:54:35.921Z,16.82
2023-01-12T02:55:01.204Z,16.84
2023-01-12T02:55:25.819Z,16.75
2023-01-12T02:55:48.751Z,16.56
2023-01-12T02:56:13.739Z,16.37
2023-01-12T02:56:39.494Z,16.41
2023-01-12T02:57:04.577Z,16.42
2023-01-12T02:57:28.412Z,16.52
2023-01-12T02:57:51.462Z,16.45
2023-01-12T02:58:18.211Z,16.39
2023-01-12T02:58:45.347Z,16.32
2023-01-12T02:59:11.911Z,16.07
2023-01-12T02:59:37.318Z,16.07
2023-01-12T03:00:01.361Z,16.12
2023-01-12T03:00:23.342Z,16.09
2023-01-12T03:00:48.310Z,16.20
2023-01-12T03:01:12.270Z,16.28
2023-01-12T03:01:37.264Z,16.30
2023-01-12T03:02:02.912Z,16.25
2023-01-12T03:02:27.657Z,16.23
2023-01-12T03:02:50.564Z,16.22
2023-01-12T03:03:19.211Z,16.29
2023-01-12T03:03:42.889Z,16.15
2023-01-12T03:04:07.890Z,16.04
2023-01-12T03:04:32.480Z,16.02
2023-01-12T03:04:55.135Z,15.96
2023-01-12T03:05:16.952Z,15.98
2023-01-12T03:05:41.329Z,15.98
2023-01-12T03:06:05.893Z,16.08
2023-01-12T03:06:41.558Z,16.06
2023-01-12T03:07:25.879Z,16.05
2023-01-12T03:07:50.945Z,15.93
2023-01-12T03:08:16.112Z,16.02
2023-01-12T03:08:40.689Z,16.08
2023-01-12T03:09:02.385Z,16.09
2023-01-12T03:09:27.407Z,15.99
2023-01-12T03:09:52.766Z,16.00
2023-01-12T03:10:37.073Z,16.16
2023-01-12T03:11:08.649Z,16.03
2023-01-12T03:11:30.945Z,16.07
2023-01-12T03:11:56.571Z,15.83
2023-01-12T03:12:23.438Z,15.81
2023-01-12T03:12:45.673Z,15.87
2023-01-12T03:13:11.234Z,15.91
2023-01-12T03:13:38.517Z,15.90
2023-01-12T03:14:02.787Z,15.66
2023-01-12T03:14:25.539Z,15.85
2023-01-12T03:14:50.892Z,15.89
2023-01-12T03:15:17.500Z,15.99
2023-01-12T03:15:42.016Z,16.11
2023-01-12T03:16:06.438Z,15.96
2023-01-12T03:16:33.864Z,15.96
2023-01-12T03:16:57.266Z,16.01
2023-01-12T03:17:30.919Z,15.98
2023-01-12T03:17:58.542Z,16.06
2023-01-12T03:18:29.964Z,16.18
2023-01-12T03:18:58.378Z,16.27
2023-01-12T03:19:25.707Z,16.38
2023-01-12T03:19:50.159Z,16.31
2023-01-12T03:20:17.533Z,16.30
2023-01-12T03:20:44.862Z,16.36
2023-01-12T03:21:14.502Z,16.42
2023-01-12T03:21:39.909Z,16.18
2023-01-12T03:22:05.050Z,16.20
2023-01-12T03:22:26.760Z,16.22
2023-01-12T03:22:51.229Z,16.21
2023-01-12T03:23:17.447Z,16.12
2023-01-12T03:23:43.795Z,16.08
2023-01-12T03:24:09.737Z,16.01
2023-01-12T03:24:36.714Z,15.92
2023-01-12T03:25:02.279Z,15.91
2023-01-12T03:25:26.680Z,15.73
2023-01-12T03:25:52.821Z,15.87
2023-01-12T03:26:18.734Z,15.76
2023-01-12T03:26:44.015Z,15.69
2023-01-12T03:27:11.266Z,15.79
2023-01-12T03:27:39.840Z,15.82
2023-01-12T03:28:04.845Z,15.82
2023-01-12T03:28:31.047Z,15.89
2023-01-12T03:28:57.426Z,15.81
2023-01-12T03:29:25.777Z,15.96
2023-01-12T03:29:55.420Z,16.04
2023-01-12T03:30:21.835Z,15.91
2023-01-12T03:30:48.901Z,15.97
2023-01-12T03:31:13.271Z,16.10
2023-01-12T03:31:37.779Z,16.09
2023-01-12T03:32:01.170Z,16.21
2023-01-12T03:32:23.773Z,16.28
2023-01-12T03:32:45.600Z,16.28
2023-01-12T03:33:08.902Z,16.14
2023-01-12T03:33:31.594Z,16.27
2023-01-12T03:33:54.778Z,16.19
2023-01-12T03:34:16.704Z,16.16
2023-01-12T03:34:39.948Z,16.11
2023-01-12T03:35:02.134Z,16.14
2023-01-12T03:35:27.716Z,16.02
2023-01-12T03:35:56.658Z,16.05
2023-01-12T03:36:25.927Z,16.07
2023-01-12T03:36:57.181Z,16.19
2023-01-12T03:37:25.656Z,16.27
2023-01-12T03:37:55.581Z,16.10
2023-01-12T03:38:24.458Z,16.21
2023-01-12T03:38:56.845Z,16.12
2023-01-12T03:39:26.219Z,16.03
2023-01-12T03:39:56.971Z,15.96
2023-01-12T03:40:22.902Z,16.08
2023-01-12T03:40:48.975Z,16.20
2023-01-12T03:41:18.239Z,16.01
2023-01-12T03:41:56.741Z,16.00
2023-01-12T03:42:26.395Z,16.20
2023-01-12T03:42:56.021Z,15.94
2023-01-12T03:43:23.955Z,16.06
2023-01-12T03:43:51.414Z,16.13
2023-01-12T03:44:20.015Z,16.09
2023-01-12T03:44:53.968Z,15.96
2023-01-12T03:45:25.296Z,15.67
2023-01-12T03:45:52.613Z,15.76
2023-01-12T03:46:21.125Z,15.82
2023-01-12T03:46:52.019Z,15.63
2023-01-12T03:47:20.656Z,15.74
2023-01-12T03:47:43.933Z,15.74
2023-01-12T03:48:13.949Z,15.47
2023-01-12T03:48:41.176Z,15.64
2023-01-12T03:49:06.840Z,15.64
2023-01-12T03:49:34.161Z,15.86
2023-01-12T03:50:01.023Z,15.67
2023-01-12T03:50:27.267Z,15.68
2023-01-12T03:50:55.903Z,15.61
2023-01-12T03:51:22.322Z,15.54
2023-01-12T03:51:49.467Z,15.51
2023-01-12T03:52:12.909Z,15.65
2023-01-12T03:52:37.528Z,15.71
2023-01-12T03:53:01.854Z,15.63
2023-01-12T03:53:24.977Z,15.70
2023-01-12T03:53:49.284Z,15.59
2023-01-12T03:54:14.311Z,15.57
2023-01-12T03:54:39.985Z,15.67
2023-01-12T03:55:03.462Z,15.74
2023-01-12T03:55:29.974Z,15.83
2023-01-12T03:55:55.642Z,15.93
2023-01-12T03:56:21.176Z,16.00
2023-01-12T03:56:45.611Z,16.09
2023-01-12T03:57:08.897Z,16.13
2023-01-12T03:57:31.907Z,16.19
2023-01-12T03:57:55.184Z,16.22
2023-01-12T03:58:17.560Z,16.16
2023-01-12T03:58:39.656Z,16.14
2023-01-12T03:59:01.533Z,16.20
2023-01-12T03:59:24.646Z,16.25
2023-01-12T03:59:46.398Z,16.30
2023-01-12T04:00:12.371Z,16.34
2023-01-12T04:00:36.752Z,16.38
2023-01-12T04:00:59.894Z,16.26
2023-01-12T04:01:21.801Z,16.08
2023-01-12T04:01:44.039Z,15.88
2023-01-12T04:02:05.795Z,15.96
2023-01-12T04:02:28.833Z,15.92
2023-01-12T04:02:51.469Z,15.88
2023-01-12T04:03:15.088Z,15.96
2023-01-12T04:03:36.786Z,16.03
2023-01-12T04:03:58.434Z,16.06
2023-01-12T04:04:20.284Z,15.92
2023-01-12T04:04:43.023Z,15.93
2023-01-12T04:05:07.029Z,15.78
2023-01-12T04:05:28.648Z,16.07
2023-01-12T04:05:50.379Z,15.93
2023-01-12T04:06:12.323Z,15.90
2023-01-12T04:06:34.912Z,16.02
2023-01-12T04:06:56.778Z,16.12
2023-01-12T04:07:18.449Z,15.76
2023-01-12T04:07:40.495Z,15.60
2023-01-12T04:08:03.182Z,15.71
2023-01-12T04:08:24.884Z,15.74
2023-01-12T04:08:46.631Z,15.80
2023-01-12T04:09:08.477Z,15.87
2023-01-12T04:09:31.064Z,15.66
2023-01-12T04:09:52.716Z,15.64
2023-01-12T04:10:14.665Z,15.61
2023-01-12T04:10:36.352Z,15.45
2023-01-12T04:10:58.938Z,15.65
2023-01-12T04:11:39.344Z,15.72
2023-01-12T04:12:13.296Z,15.94
2023-01-12T04:12:35.019Z,16.07
2023-01-12T04:12:56.792Z,16.14
2023-01-12T04:13:18.402Z,16.23
2023-01-12T04:13:40.080Z,16.27
2023-01-12T04:14:02.651Z,16.24
2023-01-12T04:14:24.500Z,16.36
2023-01-12T04:14:48.055Z,16.40
2023-01-12T04:15:10.865Z,16.23
2023-01-12T04:15:37.928Z,16.21
2023-01-12T04:15:59.641Z,16.22
2023-01-12T04:16:21.416Z,16.03
2023-01-12T04:16:43.069Z,16.01
2023-01-12T04:17:05.008Z,15.95
2023-01-12T04:17:29.367Z,15.89
2023-01-12T04:17:51.005Z,15.77
2023-01-12T04:18:13.025Z,15.62
2023-01-12T04:18:34.600Z,15.84
2023-01-12T04:18:56.495Z,15.81
2023-01-12T04:19:19.038Z,15.88
2023-01-12T04:19:40.786Z,15.91
2023-01-12T04:20:02.732Z,16.06
2023-01-12T04:20:24.433Z,16.11
2023-01-12T04:20:48.017Z,16.04
2023-01-12T04:21:30.419Z,16.23
2023-01-12T04:22:10.347Z,16.23
2023-01-12T04:22:52.747Z,16.21
2023-01-12T04:23:14.497Z,16.01
2023-01-12T04:23:36.180Z,16.05
2023-01-12T04:23:58.171Z,15.79
2023-01-12T04:24:19.809Z,15.90
2023-01-12T04:24:42.730Z,15.96
2023-01-12T04:25:05.268Z,16.03
2023-01-12T04:25:27.290Z,15.86
2023-01-12T04:25:49.942Z,15.96
2023-01-12T04:26:11.652Z,15.90
2023-01-12T04:26:33.361Z,15.66
2023-01-12T04:26:55.068Z,15.31
2023-01-12T04:27:17.257Z,15.03
2023-01-12T04:27:42.754Z,15.31
2023-01-12T04:28:04.869Z,15.43
2023-01-12T04:28:26.577Z,15.35
2023-01-12T04:28:48.399Z,15.43
2023-01-12T04:29:10.115Z,15.40
2023-01-12T04:29:32.692Z,15.45
2023-01-12T04:29:54.719Z,15.62
2023-01-12T04:30:18.708Z,15.50
2023-01-12T04:30:41.361Z,15.64
2023-01-12T04:31:02.939Z,15.67
2023-01-12T04:31:24.635Z,15.79
2023-01-12T04:31:46.336Z,15.83
2023-01-12T04:32:08.290Z,15.81
2023-01-12T04:32:32.780Z,15.93
2023-01-12T04:32:55.199Z,15.97
2023-01-12T04:33:16.885Z,15.98
2023-01-12T04:33:38.515Z,15.88
2023-01-12T04:34:00.244Z,15.77
2023-01-12T04:34:23.560Z,15.88
2023-01-12T04:34:46.220Z,15.82
2023-01-12T04:35:08.750Z,15.84
2023-01-12T04:35:31.351Z,15.60
2023-01-12T04:35:52.970Z,15.45
2023-01-12T04:36:16.528Z,15.50
2023-01-12T04:36:38.575Z,15.54
2023-01-12T04:37:01.659Z,15.65
2023-01-12T04:37:24.501Z,15.72
2023-01-12T04:37:46.590Z,15.82
2023-01-12T04:38:09.163Z,15.71
2023-01-12T04:38:30.749Z,15.90
2023-01-12T04:38:53.300Z,15.86
2023-01-12T04:39:15.058Z,15.89
2023-01-12T04:39:36.607Z,15.80
2023-01-12T04:39:58.321Z,15.76
2023-01-12T04:40:21.308Z,15.74
2023-01-12T04:40:42.919Z,15.80
2023-01-12T04:41:04.769Z,15.77
2023-01-12T04:41:26.394Z,15.71
2023-01-12T04:41:49.064Z,15.73
2023-01-12T04:42:31.011Z,15.84
2023-01-12T04:43:08.775Z,15.71
2023-01-12T04:43:30.547Z,15.78
2023-01-12T04:43:53.138Z,15.91
2023-01-12T04:44:14.848Z,16.00
2023-01-12T04:44:36.654Z,15.93
2023-01-12T04:44:58.346Z,15.94
2023-01-12T04:45:21.080Z,16.07
2023-01-12T04:45:43.674Z,16.00
2023-01-12T04:46:06.493Z,15.94
2023-01-12T04:46:28.121Z,16.13
2023-01-12T04:46:50.338Z,16.12
2023-01-12T04:47:12.942Z,16.20
2023-01-12T04:47:35.986Z,16.29
2023-01-12T04:48:01.236Z,16.30
2023-01-12T04:48:25.141Z,16.31
2023-01-12T04:48:48.104Z,16.12
2023-01-12T04:49:09.788Z,16.16
2023-01-12T04:49:31.445Z,16.14
2023-01-12T04:49:53.044Z,16.01
2023-01-12T04:50:16.074Z,16.07
2023-01-12T04:50:39.061Z,16.14
2023-01-12T04:51:01.516Z,16.05
2023-01-12T04:51:23.194Z,16.04
2023-01-12T04:51:46.130Z,16.04
2023-01-12T04:52:08.019Z,16.05
2023-01-12T04:52:29.732Z,15.77
2023-01-12T04:52:51.369Z,15.91
2023-01-12T04:53:13.818Z,15.95
2023-01-12T04:53:36.578Z,15.78
2023-01-12T04:53:58.279Z,15.81
2023-01-12T04:54:19.885Z,15.90
2023-01-12T04:54:41.488Z,15.96
2023-01-12T04:55:03.598Z,16.01
2023-01-12T04:55:26.173Z,16.01
2023-01-12T04:55:49.449Z,16.03
2023-01-12T04:56:11.103Z,15.92
2023-01-12T04:56:33.054Z,15.68
2023-01-12T04:56:55.781Z,15.60
2023-01-12T04:57:17.476Z,15.68
2023-01-12T04:57:39.128Z,15.70
2023-01-12T04:58:00.813Z,15.80
2023-01-12T04:58:23.447Z,15.77
2023-01-12T04:58:45.500Z,15.75
2023-01-12T04:59:09.670Z,15.87
2023-01-12T04:59:31.530Z,15.92
2023-01-12T04:59:54.154Z,15.91
2023-01-12T05:00:16.522Z,16.02
2023-01-12T05:00:38.203Z,15.85
2023-01-12T05:01:08.719Z,15.91
2023-01-12T05:01:31.708Z,15.78
2023-01-12T05:01:53.413Z,15.57
2023-01-12T05:02:15.383Z,15.64
2023-01-12T05:02:38.422Z,15.73
2023-01-12T05:03:02.395Z,15.72
2023-01-12T05:03:24.541Z,15.77
2023-01-12T05:03:47.048Z,15.62
2023-01-12T05:04:08.798Z,15.49
2023-01-12T05:04:30.613Z,15.55
2023-01-12T05:04:53.365Z,15.56
2023-01-12T05:05:15.135Z,15.57
2023-01-12T05:05:36.784Z,15.34
2023-01-12T05:05:58.491Z,15.45
2023-01-12T05:06:21.737Z,15.54
2023-01-12T05:07:58.940Z,15.70
2023-01-12T05:08:55.159Z,15.81
2023-01-12T05:09:59.238Z,15.73
2023-01-12T05:16:44.166Z,15.49
2023-01-12T05:17:05.917Z,15.60
2023-01-12T05:17:27.664Z,15.50
2023-01-12T05:17:50.723Z,15.63
2023-01-12T05:18:12.400Z,15.62
2023-01-12T05:18:34.942Z,15.79
2023-01-12T05:18:56.864Z,15.82
2023-01-12T05:19:18.528Z,15.82
2023-01-12T05:19:41.447Z,15.82
2023-01-12T05:20:03.772Z,15.78
2023-01-12T05:20:25.452Z,15.82
2023-01-12T05:20:47.053Z,15.92
2023-01-12T05:21:09.690Z,15.97
2023-01-12T05:21:31.431Z,16.03
2023-01-12T05:21:53.024Z,15.98
2023-01-12T05:22:14.685Z,15.72
2023-01-12T05:22:37.281Z,15.54
2023-01-12T05:22:58.935Z,15.57
2023-01-12T05:23:20.585Z,15.63
2023-01-12T05:23:42.356Z,15.63
2023-01-12T05:24:05.186Z,15.75
2023-01-12T05:24:26.852Z,15.88
2023-01-12T05:24:48.528Z,15.99
2023-01-12T05:25:10.188Z,16.03
2023-01-12T05:25:33.589Z,16.06
2023-01-12T05:25:58.804Z,16.13
2023-01-12T05:26:20.811Z,16.18
2023-01-12T05:26:42.415Z,16.20
2023-01-12T05:27:05.122Z,16.18
2023-01-12T05:27:26.713Z,16.06
2023-01-12T05:27:48.337Z,16.03
2023-01-12T05:28:10.045Z,16.04
2023-01-12T05:28:33.475Z,16.03
2023-01-12T05:28:55.184Z,16.02
2023-01-12T05:29:16.899Z,16.06
2023-01-12T05:29:38.518Z,15.95
2023-01-12T05:30:01.159Z,15.99
2023-01-12T05:30:22.840Z,16.04
2023-01-12T05:30:44.578Z,16.09
2023-01-12T05:31:09.182Z,16.11
2023-01-12T05:31:32.123Z,16.14
2023-01-12T05:31:53.773Z,16.17
2023-01-12T05:32:15.506Z,16.14
2023-01-12T05:32:38.072Z,16.12
2023-01-12T05:33:01.091Z,16.13